Terminal Aerodrome Forecast
Issued by NWS Amarillo, TX

Home | Current Version | Previous Version | Text Only | Print | Product List | Glossary On
Versions: 1 2 3 4 5 6 7 8 9 10 11 12 13 14 15 16 17 18 19 20 21 22
243
FTUS44 KAMA 040425 AAA
TAFDHT
TAF AMD
KDHT 040425Z 0404/0424 VRB06KT 1SM BR OVC003
      TEMPO 0404/0408 1/2SM FG OVC002
     FM040800 33008KT 6SM BR SCT005
     FM041300 33007KT P6SM SKC
     FM041900 20009KT P6SM SKC=

USA.gov is the U.S. government's official web portal to all federal, state and local government web resources and services.